Time;durP1;ratioP1;P1;durP2;ratioP2;P2;SDS_P1;SDS_P2;PMS_P1;PMS_P2;Temp;Humidity;BMP_temperature;BMP_pressure;BME280_temperature;BME280_humidity;BME280_pressure;Samples;Min_cycle;Max_cycle;Signal;HPM_P1;HPM_P2
2021/03/13 00:07:26;;;;;;;0.40;0.40;;;9.50;99.90;;;;;;20582268;28;20199;-76
2021/03/13 00:17:28;;;;;;;13.60;0.93;;;9.60;99.90;;;;;;20586247;28;20254;-76
2021/03/13 00:27:45;;;;;;;0.23;0.23;;;9.50;99.90;;;;;;20590105;28;20270;-77
2021/03/13 00:37:50;;;;;;;0.53;0.30;;;9.30;99.90;;;;;;20589048;28;20228;-76
2021/03/13 00:47:54;;;;;;;0.20;0.10;;;9.20;99.90;;;;;;20613152;28;20234;-77
2021/03/13 00:57:57;;;;;;;0.53;0.33;;;9.30;99.90;;;;;;20597655;28;20230;-83
2021/03/13 01:08:16;;;;;;;0.30;0.30;;;8.90;99.90;;;;;;20604810;28;20653;-79
2021/03/13 01:18:24;;;;;;;0.20;0.20;;;9.10;99.90;;;;;;20581452;28;20414;-78
2021/03/13 01:28:27;;;;;;;0.20;0.10;;;8.60;99.90;;;;;;20581145;28;20229;-79
2021/03/13 01:38:39;;;;;;;0.20;0.10;;;8.60;99.90;;;;;;20619795;28;20786;-75
2021/03/13 01:48:48;;;;;;;0.20;0.10;;;8.30;99.90;;;;;;20609784;28;20200;-75
2021/03/13 01:58:51;;;;;;;0.80;0.40;;;8.50;99.90;;;;;;20610499;28;20576;-75
2021/03/13 02:09:04;;;;;;;0.20;0.17;;;8.40;99.90;;;;;;20632689;28;20199;-75
2021/03/13 02:19:33;;;;;;;0.20;0.10;;;8.50;99.90;;;;;;20608044;28;20690;-74
2021/03/13 02:29:52;;;;;;;0.30;0.30;;;8.50;99.90;;;;;;20627177;28;20747;-78
2021/03/13 02:39:57;;;;;;;0.20;0.10;;;8.40;99.90;;;;;;20639505;28;20318;-77
2021/03/13 02:50:02;;;;;;;0.20;0.13;;;8.30;99.90;;;;;;20606585;28;20204;-74
2021/03/13 03:00:07;;;;;;;0.40;0.30;;;8.30;99.90;;;;;;20609730;28;20306;-74
2021/03/13 03:10:14;;;;;;;0.20;0.10;;;8.60;99.90;;;;;;20604763;28;20226;-74
2021/03/13 03:20:18;;;;;;;0.30;0.20;;;8.70;99.90;;;;;;20609041;28;20485;-73
2021/03/13 03:30:26;;;;;;;0.20;0.10;;;8.60;99.90;;;;;;20620803;28;20289;-73
2021/03/13 03:40:31;;;;;;;0.20;0.20;;;8.60;99.90;;;;;;20622911;28;20678;-76
2021/03/13 03:50:36;;;;;;;0.20;0.20;;;8.60;99.90;;;;;;20635950;28;20219;-75
2021/03/13 04:00:41;;;;;;;0.20;0.10;;;8.70;99.90;;;;;;20620798;28;20209;-74
2021/03/13 04:10:47;;;;;;;0.40;0.40;;;8.90;99.90;;;;;;20621640;28;20229;-76
2021/03/13 04:20:51;;;;;;;0.37;0.37;;;8.70;99.90;;;;;;20618260;28;20201;-76
2021/03/13 04:30:55;;;;;;;0.20;0.10;;;8.90;99.90;;;;;;20618177;28;20617;-74
2021/03/13 04:40:58;;;;;;;0.97;0.70;;;9.20;99.90;;;;;;20615092;28;20208;-75
2021/03/13 04:51:06;;;;;;;0.20;0.10;;;9.10;99.90;;;;;;20617386;28;20719;-75
2021/03/13 05:01:08;;;;;;;0.20;0.10;;;9.40;99.90;;;;;;20632586;28;20335;-75
2021/03/13 05:11:16;;;;;;;0.20;0.10;;;9.70;99.90;;;;;;20614892;28;20262;-75
2021/03/13 05:21:19;;;;;;;0.23;0.20;;;9.90;99.90;;;;;;20614067;28;20540;-76
2021/03/13 05:31:23;;;;;;;1.13;0.30;;;9.70;99.90;;;;;;20612833;28;20331;-75
2021/03/13 05:41:37;;;;;;;1.13;0.63;;;9.50;99.90;;;;;;20610985;28;20195;-74
2021/03/13 05:51:44;;;;;;;0.20;0.10;;;9.60;99.90;;;;;;20610996;28;20223;-73
2021/03/13 06:01:46;;;;;;;1.27;0.63;;;9.50;99.90;;;;;;20613732;28;20199;-73
2021/03/13 06:12:00;;;;;;;0.50;0.33;;;9.80;99.90;;;;;;20612155;28;20900;-78
2021/03/13 06:22:04;;;;;;;0.40;0.40;;;10.40;99.90;;;;;;20608979;28;20211;-73
2021/03/13 06:32:08;;;;;;;0.20;0.20;;;10.50;99.90;;;;;;20610207;28;20911;-76
2021/03/13 06:42:26;;;;;;;0.23;0.23;;;10.50;99.90;;;;;;20610572;28;20625;-75
2021/03/13 06:52:30;;;;;;;0.40;0.37;;;10.70;99.90;;;;;;20609332;28;20688;-73
2021/03/13 07:02:34;;;;;;;0.20;0.20;;;10.70;99.90;;;;;;20624726;28;20195;-76
2021/03/13 07:12:45;;;;;;;0.47;0.47;;;10.90;99.90;;;;;;20625537;28;20250;-77
2021/03/13 07:22:51;;;;;;;0.20;0.10;;;11.00;99.90;;;;;;20624508;28;20204;-76
2021/03/13 07:32:59;;;;;;;0.20;0.10;;;11.10;99.90;;;;;;20623727;28;20289;-74
2021/03/13 07:43:14;;;;;;;0.50;0.50;;;11.40;99.90;;;;;;20619243;28;20286;-77
2021/03/13 07:53:18;;;;;;;0.20;0.20;;;12.00;99.90;;;;;;20620425;28;20227;-74
2021/03/13 08:03:44;;;;;;;0.50;0.50;;;12.40;99.90;;;;;;20618869;28;20657;-81
2021/03/13 08:13:54;;;;;;;0.20;0.10;;;13.00;99.90;;;;;;20621331;28;20995;-76
2021/03/13 08:24:00;;;;;;;1.40;0.70;;;12.50;99.90;;;;;;20609268;28;20277;-82
2021/03/13 08:34:36;;;;;;;0.20;0.20;;;12.80;99.90;;;;;;20627712;28;20343;-81
2021/03/13 08:44:40;;;;;;;1.03;0.30;;;13.50;99.90;;;;;;20631021;28;20541;-82
2021/03/13 08:54:47;;;;;;;0.57;0.57;;;13.60;99.90;;;;;;20623968;28;20299;-84
2021/03/13 09:04:54;;;;;;;0.67;0.67;;;13.20;99.90;;;;;;20622433;28;20207;-78
2021/03/13 09:15:00;;;;;;;0.87;0.87;;;12.90;99.90;;;;;;20615813;28;20222;-78
2021/03/13 09:25:10;;;;;;;0.20;0.10;;;13.20;99.90;;;;;;20616281;28;20196;-77
2021/03/13 09:35:14;;;;;;;0.20;0.10;;;13.80;99.90;;;;;;20618717;28;20242;-75
2021/03/13 09:45:26;;;;;;;11.13;0.73;;;14.10;99.90;;;;;;20615095;28;20551;-76
2021/03/13 09:55:30;;;;;;;0.40;0.40;;;14.60;99.90;;;;;;20613970;28;20242;-78
2021/03/13 10:05:34;;;;;;;0.20;0.20;;;14.90;99.90;;;;;;20623707;28;20249;-74
2021/03/13 10:15:38;;;;;;;0.20;0.10;;;14.90;99.90;;;;;;20638769;28;20657;-78
2021/03/13 10:25:44;;;;;;;0.20;0.10;;;15.00;99.90;;;;;;20596007;28;20554;-78
2021/03/13 10:35:49;;;;;;;0.90;0.40;;;15.20;99.90;;;;;;20611286;28;20239;-77
2021/03/13 10:46:04;;;;;;;0.30;0.20;;;16.10;99.90;;;;;;20615259;28;20589;-75
2021/03/13 10:56:10;;;;;;;0.57;0.33;;;16.10;99.90;;;;;;20604185;28;20222;-76
2021/03/13 11:06:24;;;;;;;0.30;0.27;;;17.00;99.90;;;;;;20619704;28;20283;-78
2021/03/13 11:16:26;;;;;;;0.70;0.43;;;17.90;99.90;;;;;;20611837;28;20318;-85
2021/03/13 11:26:31;;;;;;;1.70;0.50;;;18.40;99.90;;;;;;20667587;28;20277;-82
2021/03/13 11:36:33;;;;;;;1.70;0.80;;;18.30;99.90;;;;;;20666833;28;20265;-69
2021/03/13 11:46:38;;;;;;;15.97;0.63;;;18.70;99.90;;;;;;20692621;28;20579;-82
2021/03/13 11:56:40;;;;;;;0.20;0.20;;;19.30;99.90;;;;;;20663978;28;20400;-81
2021/03/13 12:06:45;;;;;;;0.57;0.57;;;18.90;99.90;;;;;;20641132;28;20556;-78
2021/03/13 12:16:47;;;;;;;0.37;0.37;;;20.70;99.90;;;;;;20666870;28;20632;-75
2021/03/13 12:26:52;;;;;;;0.20;0.20;;;19.40;99.90;;;;;;20664444;28;20880;-79
2021/03/13 12:36:54;;;;;;;0.20;0.10;;;18.50;99.90;;;;;;20671551;28;20626;-80
2021/03/13 12:46:58;;;;;;;0.37;0.33;;;19.50;99.90;;;;;;20661372;28;20250;-88
2021/03/13 12:57:02;;;;;;;0.30;0.20;;;18.50;99.90;;;;;;20624417;28;20227;-85
2021/03/13 13:07:08;;;;;;;1.13;0.57;;;18.60;99.90;;;;;;20623802;28;20207;-79
2021/03/13 13:17:14;;;;;;;0.23;0.20;;;18.80;99.90;;;;;;20615785;28;20236;-81
2021/03/13 13:27:18;;;;;;;0.40;0.40;;;18.80;99.90;;;;;;20641281;28;20278;-84
2021/03/13 13:37:21;;;;;;;0.20;0.10;;;19.30;99.90;;;;;;20638425;28;20287;-79
2021/03/13 13:47:39;;;;;;;0.73;0.60;;;19.40;99.90;;;;;;20613052;28;20750;-80
2021/03/13 13:57:43;;;;;;;1.27;0.53;;;19.80;99.90;;;;;;20622438;28;20231;-86
2021/03/13 14:07:47;;;;;;;1.90;0.37;;;20.60;99.90;;;;;;20622689;28;20207;-83
2021/03/13 14:18:01;;;;;;;2.77;0.63;;;21.40;99.90;;;;;;20663886;28;20346;-85
2021/03/13 14:28:08;;;;;;;0.20;0.20;;;21.70;99.90;;;;;;20636035;28;20319;-79
2021/03/13 14:38:11;;;;;;;0.43;0.20;;;21.00;99.90;;;;;;20644349;28;20392;-78
2021/03/13 14:48:24;;;;;;;0.93;0.40;;;21.40;99.90;;;;;;20647142;28;20203;-83
2021/03/13 14:58:30;;;;;;;1.43;0.93;;;20.80;99.90;;;;;;20618621;28;20579;-83
2021/03/13 15:08:41;;;;;;;0.20;0.10;;;21.30;99.90;;;;;;20616213;28;20207;-79
2021/03/13 15:18:51;;;;;;;0.23;0.20;;;21.50;99.90;;;;;;20622906;28;20246;-78
2021/03/13 15:28:55;;;;;;;3.60;1.10;;;22.30;99.90;;;;;;20662255;28;20224;-82
2021/03/13 15:38:58;;;;;;;0.20;0.20;;;21.10;99.90;;;;;;20668659;28;20470;-78
2021/03/13 15:49:23;;;;;;;1.00;0.90;;;20.60;99.90;;;;;;20674882;28;20196;-81
2021/03/13 15:59:31;;;;;;;0.40;0.40;;;20.60;99.90;;;;;;20656238;28;20485;-77
2021/03/13 16:09:34;;;;;;;1.40;0.50;;;19.00;99.90;;;;;;20647615;28;20196;-74
2021/03/13 16:19:37;;;;;;;0.53;0.43;;;18.90;99.90;;;;;;20629476;28;20235;-85
2021/03/13 16:29:42;;;;;;;1.97;0.80;;;18.20;99.90;;;;;;20588786;28;20247;-81
2021/03/13 16:39:44;;;;;;;0.80;0.43;;;17.70;99.90;;;;;;20597692;28;20294;-76
2021/03/13 16:50:06;;;;;;;0.20;0.10;;;17.00;99.90;;;;;;20666111;28;20273;-83
2021/03/13 17:00:12;;;;;;;2.53;1.03;;;17.60;99.90;;;;;;20632704;28;20235;-79
2021/03/13 17:10:16;;;;;;;3.77;0.47;;;17.80;99.90;;;;;;20632957;28;20554;-80
2021/03/13 17:20:21;;;;;;;1.23;0.50;;;17.00;99.90;;;;;;20627524;28;20227;-83
2021/03/13 17:30:26;;;;;;;3.30;1.07;;;16.50;99.90;;;;;;20599249;28;20223;-78
2021/03/13 17:40:29;;;;;;;0.70;0.47;;;16.20;99.90;;;;;;20599694;28;20289;-75
2021/03/13 17:50:41;;;;;;;0.20;0.10;;;15.90;99.90;;;;;;20605796;28;20231;-74
2021/03/13 18:00:45;;;;;;;0.50;0.30;;;15.60;99.90;;;;;;20605150;28;20580;-70
2021/03/13 18:10:48;;;;;;;0.40;0.20;;;15.50;99.90;;;;;;20624081;28;21111;-74
2021/03/13 18:21:04;;;;;;;0.30;0.30;;;15.30;99.90;;;;;;20608200;28;20199;-83
2021/03/13 18:31:19;;;;;;;0.30;0.20;;;15.20;99.90;;;;;;20608682;28;20238;-74
2021/03/13 18:41:21;;;;;;;1.40;0.57;;;15.40;99.90;;;;;;20607662;28;20661;-75
2021/03/13 18:51:30;;;;;;;0.20;0.10;;;14.70;99.90;;;;;;20650991;28;20292;-75
2021/03/13 19:01:33;;;;;;;0.57;0.57;;;14.40;99.90;;;;;;20630671;28;20629;-74
2021/03/13 19:11:57;;;;;;;0.80;0.73;;;14.40;99.90;;;;;;20615275;28;20219;-76
2021/03/13 19:22:00;;;;;;;0.67;0.67;;;14.30;99.90;;;;;;20622328;28;20265;-76
2021/03/13 19:32:05;;;;;;;2.23;2.03;;;13.60;99.90;;;;;;20625531;28;20239;-75
2021/03/13 19:42:08;;;;;;;6.43;1.33;;;13.20;99.90;;;;;;20615195;28;21365;-75
2021/03/13 19:52:16;;;;;;;2.10;0.63;;;12.70;99.90;;;;;;20586483;28;20557;-74
2021/03/13 20:02:38;;;;;;;0.27;0.27;;;12.40;99.90;;;;;;20605445;28;20676;-76
2021/03/13 20:12:42;;;;;;;3.70;1.10;;;12.30;99.90;;;;;;20630625;28;20263;-76
2021/03/13 20:22:45;;;;;;;0.53;0.53;;;11.80;99.90;;;;;;20627977;28;20330;-73
2021/03/13 20:32:50;;;;;;;0.30;0.30;;;11.60;99.90;;;;;;20632454;28;20243;-71
2021/03/13 20:42:53;;;;;;;0.47;0.47;;;11.10;99.90;;;;;;20655017;28;20202;-74
2021/03/13 20:53:01;;;;;;;2.97;1.53;;;11.20;99.90;;;;;;20652918;28;20639;-75
2021/03/13 21:03:04;;;;;;;0.83;0.83;;;11.50;99.90;;;;;;20627228;28;20320;-73
2021/03/13 21:13:10;;;;;;;0.87;0.87;;;11.50;99.90;;;;;;20612440;28;20224;-73
2021/03/13 21:23:21;;;;;;;0.50;0.50;;;11.40;99.90;;;;;;20602445;28;20202;-71
2021/03/13 21:33:25;;;;;;;2.07;1.20;;;11.10;99.90;;;;;;20596950;28;20238;-70
2021/03/13 21:43:28;;;;;;;0.33;0.33;;;10.90;99.90;;;;;;20636150;28;20210;-70
2021/03/13 21:53:48;;;;;;;1.13;0.90;;;11.00;99.90;;;;;;20610290;28;20223;-70
2021/03/13 22:03:51;;;;;;;3.40;0.57;;;10.60;99.90;;;;;;20684130;28;20213;-70
2021/03/13 22:13:54;;;;;;;1.10;0.43;;;10.20;99.90;;;;;;20630046;28;20228;-71
2021/03/13 22:24:12;;;;;;;0.20;0.20;;;10.20;99.90;;;;;;20609514;28;20270;-73
2021/03/13 22:34:16;;;;;;;0.97;0.73;;;9.70;99.90;;;;;;20611951;28;20409;-73
2021/03/13 22:44:18;;;;;;;0.43;0.43;;;9.60;99.90;;;;;;20608822;28;20196;-69
2021/03/13 22:54:31;;;;;;;0.27;0.27;;;9.50;99.90;;;;;;20687715;28;20226;-70
2021/03/13 23:04:38;;;;;;;6.03;1.13;;;9.80;99.90;;;;;;20663091;28;20211;-70
2021/03/13 23:14:42;;;;;;;0.30;0.30;;;9.90;99.90;;;;;;20603904;28;20294;-70
2021/03/13 23:25:00;;;;;;;0.37;0.37;;;10.00;99.90;;;;;;20605995;28;20657;-71
2021/03/13 23:35:09;;;;;;;0.30;0.30;;;9.80;99.90;;;;;;20631650;28;20235;-70
2021/03/13 23:45:13;;;;;;;0.20;0.20;;;10.20;99.90;;;;;;20628871;28;20307;-69
2021/03/13 23:55:24;;;;;;;0.50;0.50;;;9.90;99.90;;;;;;20620166;28;20227;-68
